createdAt,value
2019-04-22T00:01:45.596Z,7.47
2019-04-22T00:04:17.750Z,13.77
2019-04-22T00:07:03.102Z,9.47
2019-04-22T00:09:38.815Z,9.57
2019-04-22T00:12:06.350Z,10.70
2019-04-22T00:14:28.327Z,10.30
2019-04-22T00:19:29.154Z,8.77
2019-04-22T00:22:03.316Z,8.43
2019-04-22T00:24:24.506Z,10.20
2019-04-22T00:26:58.830Z,9.47
2019-04-22T00:29:46.259Z,8.27
2019-04-22T00:31:46.868Z,9.47
2019-04-22T00:34:16.756Z,8.50
2019-04-22T00:36:42.087Z,8.77
2019-04-22T00:39:17.035Z,8.20
2019-04-22T00:41:46.652Z,10.67
2019-04-22T00:44:12.585Z,9.20
2019-04-22T00:46:38.054Z,8.77
2019-04-22T00:49:53.005Z,8.40
2019-04-22T00:51:36.539Z,9.03
2019-04-22T00:54:00.997Z,8.23
2019-04-22T00:56:27.741Z,8.30
2019-04-22T00:58:50.317Z,8.53
2019-04-22T01:01:26.250Z,7.57
2019-04-22T01:04:05.624Z,11.80
2019-04-22T01:06:29.086Z,8.60
2019-04-22T01:11:23.078Z,8.47
2019-04-22T01:13:46.369Z,8.27
2019-04-22T01:16:17.316Z,7.77
2019-04-22T01:18:44.127Z,8.20
2019-04-22T01:21:23.140Z,8.50
2019-04-22T01:23:34.659Z,8.07
2019-04-22T01:26:06.415Z,7.73
2019-04-22T01:28:36.761Z,8.03
2019-04-22T01:31:00.396Z,8.07
2019-04-22T01:33:29.435Z,8.40
2019-04-22T01:36:08.045Z,10.90
2019-04-22T01:38:37.309Z,8.03
2019-04-22T01:41:16.486Z,8.33
2019-04-22T01:43:42.628Z,8.77
2019-04-22T01:46:08.343Z,8.30
2019-04-22T01:48:44.807Z,7.90
2019-04-22T01:51:01.702Z,8.23
2019-04-22T01:53:36.419Z,7.47
2019-04-22T01:55:59.031Z,8.30
2019-04-22T01:58:23.669Z,8.03
2019-04-22T02:01:18.560Z,8.50
2019-04-22T02:03:31.142Z,8.23
2019-04-22T02:05:59.323Z,8.67
2019-04-22T02:08:31.291Z,8.00
2019-04-22T02:11:07.993Z,9.50
2019-04-22T02:13:24.633Z,8.77
2019-04-22T02:15:52.690Z,9.17
2019-04-22T02:18:23.018Z,8.10
2019-04-22T02:20:43.003Z,8.30
2019-04-22T02:28:34.255Z,9.07
2019-04-22T02:36:08.240Z,8.53
2019-04-22T02:38:34.975Z,8.40
2019-04-22T02:43:41.540Z,10.13
2019-04-22T02:46:07.821Z,9.03
2019-04-22T02:50:54.899Z,8.40
2019-04-22T02:53:29.401Z,8.93
2019-04-22T02:55:53.613Z,9.57
2019-04-22T02:58:14.138Z,8.37
2019-04-22T03:00:49.209Z,10.03
2019-04-22T03:03:20.941Z,10.37
2019-04-22T03:05:53.331Z,9.83
2019-04-22T03:08:23.624Z,8.50
2019-04-22T03:13:08.946Z,8.57
2019-04-22T03:15:48.416Z,9.37
2019-04-22T03:18:00.862Z,8.67
2019-04-22T03:20:24.737Z,8.40
2019-04-22T03:23:13.738Z,8.77
2019-04-22T03:25:51.763Z,8.27
2019-04-22T03:27:48.293Z,8.93
2019-04-22T03:30:48.101Z,8.63
2019-04-22T03:42:52.417Z,8.00
2019-04-22T03:45:20.261Z,8.63
2019-04-22T03:50:19.182Z,8.70
2019-04-22T03:52:30.989Z,9.70
2019-04-22T03:55:09.258Z,9.07
2019-04-22T03:57:46.428Z,9.80
2019-04-22T04:04:50.351Z,8.33
2019-04-22T04:07:45.601Z,8.83
2019-04-22T04:10:08.057Z,8.60
2019-04-22T04:12:24.508Z,9.17
2019-04-22T04:17:20.270Z,9.10
2019-04-22T04:20:03.302Z,9.93
2019-04-22T04:22:21.303Z,9.53
2019-04-22T04:24:53.593Z,11.83
2019-04-22T04:32:25.176Z,9.70
2019-04-22T04:34:56.164Z,10.00
2019-04-22T04:37:07.278Z,10.17
2019-04-22T04:42:04.754Z,9.90
2019-04-22T04:44:45.204Z,9.73
2019-04-22T04:47:15.587Z,9.57
2019-04-22T04:49:23.911Z,9.60
2019-04-22T04:51:47.016Z,10.60
2019-04-22T04:56:50.331Z,8.63
2019-04-22T04:59:41.292Z,8.43
2019-04-22T05:01:44.901Z,9.00
2019-04-22T05:06:48.603Z,8.60
2019-04-22T05:16:34.496Z,8.27
2019-04-22T05:21:22.520Z,8.43
2019-04-22T05:26:26.076Z,7.67
2019-04-22T05:28:44.986Z,7.70
2019-04-22T05:31:16.209Z,8.53
2019-04-22T05:33:41.113Z,8.00
2019-04-22T05:36:07.211Z,10.83
2019-04-22T05:38:39.993Z,9.40
2019-04-22T05:41:02.243Z,7.83
2019-04-22T05:43:29.486Z,7.97
2019-04-22T05:45:58.889Z,9.03
2019-04-22T05:48:30.531Z,7.90
2019-04-22T05:50:59.322Z,7.87
2019-04-22T05:53:20.063Z,8.17
2019-04-22T05:58:15.323Z,7.60
2019-04-22T06:03:37.907Z,8.15
2019-04-22T06:06:00.895Z,7.53
2019-04-22T06:08:29.231Z,7.20
2019-04-22T06:10:59.202Z,7.90
2019-04-22T06:13:27.627Z,7.65
2019-04-22T06:15:56.881Z,7.83
2019-04-22T06:18:27.256Z,7.70
2019-04-22T06:21:09.010Z,7.67
2019-04-22T06:26:04.891Z,7.50
2019-04-22T06:28:29.139Z,7.30
2019-04-22T06:33:20.295Z,8.35
2019-04-22T06:35:54.690Z,7.17
2019-04-22T06:40:46.897Z,7.15
2019-04-22T06:45:51.377Z,7.60
2019-04-22T06:48:13.118Z,7.47
2019-04-22T06:53:06.770Z,7.70
2019-04-22T06:56:11.406Z,8.00
2019-04-22T06:58:22.014Z,8.55
2019-04-22T07:00:55.806Z,8.10
2019-04-22T07:03:34.818Z,7.75
2019-04-22T07:05:51.815Z,8.00
2019-04-22T07:08:39.444Z,7.70
2019-04-22T07:10:49.138Z,7.57
2019-04-22T07:13:19.106Z,7.00
2019-04-22T07:15:50.585Z,7.45
2019-04-22T07:18:11.697Z,8.10
2019-04-22T07:23:09.649Z,7.90
2019-04-22T07:25:34.822Z,7.90
2019-04-22T07:28:05.429Z,7.90
2019-04-22T07:30:35.040Z,8.23
2019-04-22T07:33:12.743Z,7.83
2019-04-22T07:35:42.181Z,8.57
2019-04-22T07:38:00.714Z,8.10
2019-04-22T07:40:37.298Z,8.53
2019-04-22T07:43:02.523Z,8.23
2019-04-22T07:45:25.061Z,8.27
2019-04-22T07:47:52.166Z,7.43
2019-04-22T07:50:31.182Z,8.13
2019-04-22T07:52:48.129Z,7.40
2019-04-22T07:55:13.460Z,8.33
2019-04-22T07:57:48.279Z,8.23
2019-04-22T08:00:16.036Z,7.67
2019-04-22T08:02:48.457Z,8.30
2019-04-22T08:05:17.185Z,8.43
2019-04-22T08:07:37.711Z,9.20
2019-04-22T08:10:14.295Z,8.53
2019-04-22T08:12:36.315Z,9.03
2019-04-22T08:15:05.761Z,8.77
2019-04-22T08:17:52.121Z,9.30
2019-04-22T08:20:05.535Z,8.23
2019-04-22T08:22:32.460Z,8.97
2019-04-22T08:24:56.372Z,9.23
2019-04-22T08:27:22.477Z,9.37
2019-04-22T08:29:59.794Z,9.07
2019-04-22T08:32:22.224Z,8.53
2019-04-22T08:38:14.898Z,8.07
2019-04-22T08:41:06.848Z,9.90
2019-04-22T08:43:39.451Z,8.37
2019-04-22T08:46:06.221Z,8.07
2019-04-22T08:48:32.635Z,9.13
2019-04-22T08:51:07.596Z,8.33
2019-04-22T08:53:35.983Z,8.30
2019-04-22T08:56:04.714Z,8.10
2019-04-22T08:58:29.472Z,8.03
2019-04-22T09:03:18.769Z,8.23
2019-04-22T09:08:23.065Z,8.13
2019-04-22T09:10:43.571Z,8.17
2019-04-22T09:13:05.844Z,8.03
2019-04-22T09:18:08.174Z,7.60
2019-04-22T09:20:42.644Z,8.03
2019-04-22T09:23:12.278Z,7.50
2019-04-22T09:25:34.262Z,7.77
2019-04-22T09:28:00.769Z,7.40
2019-04-22T09:30:34.331Z,7.27
2019-04-22T09:33:06.704Z,8.37
2019-04-22T09:35:34.391Z,7.47
2019-04-22T09:38:10.593Z,7.40
2019-04-22T09:40:22.343Z,7.77
2019-04-22T09:45:15.256Z,6.90
2019-04-22T09:47:55.607Z,6.50
2019-04-22T09:50:15.348Z,7.03
2019-04-22T09:52:51.601Z,6.90
2019-04-22T09:55:18.309Z,7.30
2019-04-22T09:57:39.747Z,6.00
2019-04-22T10:00:08.862Z,6.67
2019-04-22T10:02:40.715Z,6.00
2019-04-22T10:05:21.063Z,5.10
2019-04-22T10:07:32.446Z,5.43
2019-04-22T10:10:09.457Z,5.80
2019-04-22T10:15:16.378Z,4.67
2019-04-22T10:17:25.802Z,5.33
2019-04-22T10:19:57.931Z,5.00
2019-04-22T10:25:01.723Z,6.10
2019-04-22T10:27:21.097Z,6.00
2019-04-22T10:30:04.185Z,6.45
2019-04-22T10:32:19.112Z,5.25
2019-04-22T10:34:34.070Z,5.23
2019-04-22T10:36:56.832Z,5.33
2019-04-22T10:39:20.212Z,5.20
2019-04-22T10:41:46.533Z,5.03
2019-04-22T10:44:13.053Z,7.33
2019-04-22T10:46:40.242Z,8.00
2019-04-22T10:49:06.482Z,5.93
2019-04-22T10:51:32.821Z,5.03
2019-04-22T10:53:59.714Z,5.30
2019-04-22T10:56:27.106Z,6.67
2019-04-22T10:58:53.335Z,4.23
2019-04-22T11:01:19.590Z,4.42
2019-04-22T11:03:45.810Z,4.73
2019-04-22T11:06:11.964Z,4.17
2019-04-22T11:08:42.446Z,4.80
2019-04-22T11:11:18.962Z,6.97
2019-04-22T11:13:35.839Z,5.30
2019-04-22T11:16:03.507Z,5.33
2019-04-22T11:18:29.679Z,6.43
2019-04-22T11:20:55.899Z,4.80
2019-04-22T11:23:22.581Z,5.20
2019-04-22T11:25:50.028Z,5.15
2019-04-22T11:28:17.842Z,4.40
2019-04-22T11:30:44.697Z,5.22
2019-04-22T11:33:12.091Z,5.50
2019-04-22T11:35:39.624Z,4.45
2019-04-22T11:38:06.611Z,4.83
2019-04-22T11:40:38.378Z,6.00
2019-04-22T11:43:01.887Z,5.08
2019-04-22T11:45:29.139Z,4.90
2019-04-22T11:47:55.533Z,5.45
2019-04-22T11:50:24.086Z,5.05
2019-04-22T11:52:50.962Z,4.35
2019-04-22T11:55:19.045Z,5.15
2019-04-22T11:57:45.438Z,5.70
2019-04-22T12:00:14.579Z,4.37
2019-04-22T12:02:41.039Z,4.35
2019-04-22T12:05:09.937Z,4.40
2019-04-22T12:07:38.988Z,3.87
2019-04-22T12:10:18.921Z,3.63
2019-04-22T12:12:36.297Z,5.53
2019-04-22T12:15:08.523Z,4.10
2019-04-22T12:17:36.145Z,4.45
2019-04-22T12:20:08.584Z,3.87
2019-04-22T12:22:33.983Z,4.97
2019-04-22T12:25:04.145Z,3.50
2019-04-22T12:27:30.597Z,4.87
2019-04-22T12:29:56.844Z,3.95
2019-04-22T12:32:23.271Z,3.62
2019-04-22T12:34:49.465Z,3.93
2019-04-22T12:37:26.062Z,3.95
2019-04-22T12:39:43.678Z,4.30
2019-04-22T12:42:11.165Z,4.47
2019-04-22T12:44:40.392Z,4.90
2019-04-22T12:47:07.950Z,4.65
2019-04-22T12:49:38.337Z,4.10
2019-04-22T12:52:03.193Z,2.93
2019-04-22T12:54:29.154Z,3.10
2019-04-22T12:56:55.730Z,3.37
2019-04-22T12:59:23.485Z,3.07
2019-04-22T13:01:51.006Z,4.72
2019-04-22T13:04:19.563Z,4.33
2019-04-22T13:06:46.037Z,3.57
2019-04-22T13:09:12.642Z,4.17
2019-04-22T13:11:40.756Z,7.07
2019-04-22T13:14:07.296Z,3.03
2019-04-22T13:16:33.596Z,4.00
2019-04-22T13:19:05.065Z,4.10
2019-04-22T13:21:28.883Z,4.25
2019-04-22T13:23:55.020Z,6.40
2019-04-22T13:26:21.280Z,5.33
2019-04-22T13:28:47.476Z,4.10
2019-04-22T13:31:13.957Z,3.03
2019-04-22T13:33:40.982Z,5.25
2019-04-22T13:36:08.034Z,5.03
2019-04-22T13:38:35.349Z,3.22
2019-04-22T13:41:18.508Z,4.27
2019-04-22T13:43:29.454Z,3.20
2019-04-22T13:45:56.193Z,4.78
2019-04-22T13:48:38.669Z,3.93
2019-04-22T13:51:20.792Z,3.57
2019-04-22T13:56:10.746Z,3.13
2019-04-22T13:58:28.917Z,4.40
2019-04-22T14:00:42.635Z,2.73
2019-04-22T14:03:09.004Z,3.13
2019-04-22T14:05:35.432Z,2.47
2019-04-22T14:08:04.289Z,2.50
2019-04-22T14:10:30.281Z,3.07
2019-04-22T14:12:57.038Z,3.00
2019-04-22T14:15:24.334Z,5.07
2019-04-22T14:17:50.453Z,2.30
2019-04-22T14:20:18.738Z,3.90
2019-04-22T14:22:46.704Z,3.67
2019-04-22T14:25:14.434Z,3.97
2019-04-22T14:27:50.025Z,2.60
2019-04-22T14:30:10.596Z,3.83
2019-04-22T14:32:38.038Z,2.80
2019-04-22T14:35:11.110Z,1.97
2019-04-22T14:37:38.612Z,3.70
2019-04-22T14:40:09.237Z,2.63
2019-04-22T14:44:42.411Z,3.53
2019-04-22T14:45:29.826Z,3.37
2019-04-22T14:48:01.449Z,3.57
2019-04-22T14:50:22.196Z,2.93
2019-04-22T14:52:52.306Z,3.37
2019-04-22T14:55:09.191Z,2.97
2019-04-22T14:57:27.756Z,3.40
2019-04-22T14:59:55.546Z,5.03
2019-04-22T15:02:21.896Z,3.67
2019-04-22T15:04:48.105Z,4.17
2019-04-22T15:07:14.987Z,4.40
2019-04-22T15:09:41.960Z,2.43
2019-04-22T15:12:16.399Z,4.40
2019-04-22T15:14:37.521Z,3.03
2019-04-22T15:17:04.925Z,3.73
2019-04-22T15:19:31.747Z,2.77
2019-04-22T15:21:58.734Z,2.47
2019-04-22T15:24:25.333Z,3.17
2019-04-22T15:26:56.196Z,2.90
2019-04-22T15:29:23.213Z,2.70
2019-04-22T15:31:49.616Z,3.70
2019-04-22T15:34:16.664Z,4.30
2019-04-22T15:36:44.348Z,3.57
2019-04-22T15:39:11.271Z,3.07
2019-04-22T15:41:41.038Z,3.30
2019-04-22T15:44:08.006Z,3.67
2019-04-22T15:46:34.980Z,2.63
2019-04-22T15:49:02.127Z,3.43
2019-04-22T15:51:30.810Z,5.20
2019-04-22T15:53:58.077Z,3.67
2019-04-22T15:56:24.175Z,5.20
2019-04-22T15:58:51.474Z,3.23
2019-04-22T16:01:25.901Z,2.87
2019-04-22T16:03:46.975Z,3.67
2019-04-22T16:06:13.415Z,1.90
2019-04-22T16:08:41.134Z,2.17
2019-04-22T16:11:07.483Z,2.10
2019-04-22T16:13:36.766Z,3.77
2019-04-22T16:16:02.678Z,4.23
2019-04-22T16:18:30.527Z,3.03
2019-04-22T16:20:58.643Z,2.00
2019-04-22T16:23:27.861Z,2.67
2019-04-22T16:25:53.623Z,6.07
2019-04-22T16:28:19.891Z,4.60
2019-04-22T16:30:47.285Z,3.63
2019-04-22T16:33:15.070Z,4.43
2019-04-22T16:35:42.652Z,4.07
2019-04-22T16:38:10.740Z,2.00
2019-04-22T16:40:36.978Z,2.53
2019-04-22T16:43:06.354Z,2.47
2019-04-22T16:45:31.768Z,3.53
2019-04-22T16:47:58.034Z,4.47
2019-04-22T16:50:25.166Z,5.70
2019-04-22T16:52:52.370Z,3.80
2019-04-22T16:55:18.969Z,3.00
2019-04-22T16:57:46.061Z,2.70
2019-04-22T17:00:13.233Z,3.70
2019-04-22T17:02:42.713Z,2.90
2019-04-22T17:05:09.375Z,5.90
2019-04-22T17:07:36.133Z,3.97
2019-04-22T17:10:05.983Z,3.43
2019-04-22T17:12:44.129Z,3.50
2019-04-22T17:15:05.665Z,6.93
2019-04-22T17:17:28.582Z,6.03
2019-04-22T17:19:55.516Z,5.37
2019-04-22T17:22:23.903Z,4.90
2019-04-22T17:24:50.148Z,3.37
2019-04-22T17:27:16.171Z,3.90
2019-04-22T17:29:42.196Z,6.73
2019-04-22T17:32:12.787Z,2.67
2019-04-22T17:34:36.594Z,4.10
2019-04-22T17:37:04.110Z,4.07
2019-04-22T17:39:43.517Z,4.10
2019-04-22T17:42:23.824Z,4.73
2019-04-22T17:44:48.733Z,2.47
2019-04-22T17:47:10.577Z,2.20
2019-04-22T17:49:50.832Z,2.80
2019-04-22T17:52:17.351Z,1.60
2019-04-22T17:54:42.175Z,2.40
2019-04-22T17:57:12.326Z,3.90
2019-04-22T17:59:38.139Z,5.63
2019-04-22T18:02:02.482Z,2.30
2019-04-22T18:04:14.367Z,6.53
2019-04-22T18:07:02.078Z,6.07
2019-04-22T18:09:40.339Z,5.80
2019-04-22T18:12:05.455Z,4.33
2019-04-22T18:14:41.129Z,4.60
2019-04-22T18:17:02.345Z,3.67
2019-04-22T18:19:26.010Z,4.87
2019-04-22T18:21:51.701Z,6.90
2019-04-22T18:24:13.011Z,5.77
2019-04-22T18:26:53.468Z,6.70
2019-04-22T18:29:21.952Z,7.73
2019-04-22T18:31:41.243Z,4.23
2019-04-22T18:34:09.808Z,7.20
2019-04-22T18:36:44.160Z,3.37
2019-04-22T18:39:19.763Z,3.70
2019-04-22T18:41:40.616Z,3.43
2019-04-22T18:44:09.978Z,6.33
2019-04-22T18:46:39.119Z,7.57
2019-04-22T18:49:08.046Z,4.90
2019-04-22T18:51:40.915Z,5.87
2019-04-22T18:54:06.500Z,5.87
2019-04-22T18:56:34.313Z,4.20
2019-04-22T18:58:53.671Z,6.87
2019-04-22T19:01:12.451Z,6.80
2019-04-22T19:03:53.091Z,4.12
2019-04-22T19:06:34.061Z,5.23
2019-04-22T19:08:55.609Z,4.47
2019-04-22T19:11:22.314Z,5.43
2019-04-22T19:14:02.308Z,5.13
2019-04-22T19:16:31.003Z,3.10
2019-04-22T19:19:08.055Z,2.93
2019-04-22T19:21:14.989Z,4.90
2019-04-22T19:23:45.277Z,4.63
2019-04-22T19:26:20.563Z,2.93
2019-04-22T19:28:42.280Z,4.73
2019-04-22T19:31:13.521Z,3.10
2019-04-22T19:33:44.449Z,3.00
2019-04-22T19:36:11.395Z,2.63
2019-04-22T19:38:24.112Z,3.77
2019-04-22T19:41:06.863Z,4.83
2019-04-22T19:43:28.770Z,4.03
2019-04-22T19:45:55.727Z,3.53
2019-04-22T19:48:37.386Z,3.77
2019-04-22T19:50:59.688Z,5.17
2019-04-22T19:53:25.532Z,3.87
2019-04-22T19:55:47.052Z,5.63
2019-04-22T19:58:17.594Z,2.93
2019-04-22T20:00:37.500Z,5.10
2019-04-22T20:03:21.800Z,3.53
2019-04-22T20:05:43.773Z,3.63
2019-04-22T20:08:31.016Z,5.07
2019-04-22T20:10:59.209Z,2.40
2019-04-22T20:13:31.098Z,3.47
2019-04-22T20:15:47.351Z,2.93
2019-04-22T20:20:58.309Z,4.17
2019-04-22T20:23:16.001Z,5.00
2019-04-22T20:25:46.376Z,5.90
2019-04-22T20:28:19.697Z,3.27
2019-04-22T20:30:46.607Z,3.47
2019-04-22T20:33:13.877Z,4.80
2019-04-22T20:35:43.524Z,6.57
2019-04-22T20:38:14.837Z,2.70
2019-04-22T20:40:39.769Z,3.17
2019-04-22T20:43:15.117Z,3.67
2019-04-22T20:45:39.595Z,3.97
2019-04-22T20:47:58.847Z,3.10
2019-04-22T20:50:34.722Z,4.70
2019-04-22T20:53:06.918Z,3.47
2019-04-22T20:55:25.433Z,3.50
2019-04-22T20:58:02.718Z,3.00
2019-04-22T21:00:23.476Z,3.83
2019-04-22T21:02:48.949Z,4.67
2019-04-22T21:05:19.684Z,3.17
2019-04-22T21:07:59.484Z,5.00
2019-04-22T21:10:19.931Z,3.20
2019-04-22T21:12:38.382Z,4.13
2019-04-22T21:15:24.148Z,4.33
2019-04-22T21:17:44.761Z,4.33
2019-04-22T21:20:18.620Z,3.50
2019-04-22T21:22:44.784Z,3.40
2019-04-22T21:25:07.212Z,3.37
2019-04-22T21:27:45.543Z,5.10
2019-04-22T21:29:58.196Z,3.73
2019-04-22T21:32:34.407Z,4.43
2019-04-22T21:35:05.804Z,4.27
2019-04-22T21:37:39.836Z,3.43
2019-04-22T21:39:57.932Z,4.67
2019-04-22T21:42:26.765Z,4.13
2019-04-22T21:44:51.008Z,3.73
2019-04-22T21:47:30.150Z,4.73
2019-04-22T21:50:10.197Z,4.13
2019-04-22T21:52:24.864Z,4.63
2019-04-22T21:55:04.321Z,3.40
2019-04-22T21:57:24.648Z,4.33
2019-04-22T21:59:46.141Z,7.03
2019-04-22T22:02:17.530Z,3.50
2019-04-22T22:04:38.680Z,4.03
2019-04-22T22:07:01.074Z,3.40
2019-04-22T22:09:44.464Z,4.20
2019-04-22T22:12:05.276Z,4.80
2019-04-22T22:14:33.557Z,6.10
2019-04-22T22:16:56.128Z,3.67
2019-04-22T22:19:29.377Z,3.90
2019-04-22T22:22:06.157Z,5.10
2019-04-22T22:24:36.999Z,4.10
2019-04-22T22:26:55.570Z,5.73
2019-04-22T22:29:38.285Z,4.60
2019-04-22T22:32:02.741Z,3.77
2019-04-22T22:34:24.914Z,4.13
2019-04-22T22:36:40.293Z,3.80
2019-04-22T22:39:08.589Z,3.83
2019-04-22T22:41:24.060Z,4.50
2019-04-22T22:43:57.015Z,3.93
2019-04-22T22:46:31.562Z,4.13
2019-04-22T22:49:12.865Z,4.10
2019-04-22T22:51:51.798Z,3.83
2019-04-22T22:54:03.685Z,4.20
2019-04-22T22:56:45.074Z,4.20
2019-04-22T22:58:59.753Z,4.20
2019-04-22T23:01:31.465Z,6.60
2019-04-22T23:03:57.579Z,4.53
2019-04-22T23:06:32.881Z,5.73
2019-04-22T23:09:00.167Z,5.80
2019-04-22T23:11:40.473Z,5.60
2019-04-22T23:13:49.987Z,5.77
2019-04-22T23:16:10.098Z,4.20
2019-04-22T23:18:25.919Z,3.93
2019-04-22T23:20:54.098Z,4.93
2019-04-22T23:23:38.249Z,5.13
2019-04-22T23:26:06.792Z,3.73
2019-04-22T23:28:30.101Z,4.50
2019-04-22T23:30:51.149Z,4.77
2019-04-22T23:33:26.485Z,4.13
2019-04-22T23:35:53.216Z,4.30
2019-04-22T23:38:21.009Z,5.20
2019-04-22T23:40:55.654Z,5.03
2019-04-22T23:43:27.596Z,6.17
2019-04-22T23:45:51.479Z,5.50
2019-04-22T23:48:11.707Z,5.07
2019-04-22T23:50:47.403Z,4.40
2019-04-22T23:53:08.640Z,4.40
2019-04-22T23:55:49.929Z,5.27
2019-04-22T23:58:09.573Z,6.10
